Terminal Aerodrome Forecast
Issued by NWS Jackson, MS

Home | Current Version | Previous Version | Text Only | Print | Product List | Glossary On
Versions: 1 2 3 4 5 6 7 8 9 10 11 12 13 14 15 16 17 18 19 20 21 22 23 24 25
043
FTUS44 KJAN 221138
TAFJAN
TAF
KJAN 221138Z 2212/2312 17012KT P6SM VCSH BKN015 OVC025
     FM221800 16011KT P6SM BKN050
     FM230600 17008KT P6SM OVC015
     FM230900 17005KT 4SM BR OVC005=

USA.gov is the U.S. government's official web portal to all federal, state and local government web resources and services.